createdAt,value
2018-02-24T00:01:41.685Z,-3.80
2018-02-24T00:04:09.245Z,-3.90
2018-02-24T00:06:37.501Z,-3.80
2018-02-24T00:09:05.131Z,-3.90
2018-02-24T00:11:32.643Z,-3.90
2018-02-24T00:14:00.153Z,-3.90
2018-02-24T00:16:27.661Z,-3.90
2018-02-24T00:18:57.228Z,-3.90
2018-02-24T00:21:24.933Z,-3.90
2018-02-24T00:23:52.429Z,-3.90
2018-02-24T00:26:21.140Z,-3.90
2018-02-24T00:28:48.731Z,-4.00
2018-02-24T00:31:16.259Z,-3.90
2018-02-24T00:33:43.753Z,-3.90
2018-02-24T00:36:11.331Z,-3.90
2018-02-24T00:38:40.220Z,-3.90
2018-02-24T00:41:07.730Z,-3.90
2018-02-24T00:43:36.077Z,-3.90
2018-02-24T00:46:03.569Z,-3.90
2018-02-24T00:48:31.865Z,-3.80
2018-02-24T00:50:59.379Z,-3.80
2018-02-24T00:53:26.880Z,-3.80
2018-02-24T00:55:55.168Z,-3.70
2018-02-24T00:58:23.438Z,-3.70
2018-02-24T01:00:51.749Z,-3.60
2018-02-24T01:03:19.257Z,-3.60
2018-02-24T01:05:46.774Z,-3.60
2018-02-24T01:08:14.277Z,-3.60
2018-02-24T01:10:41.798Z,-3.60
2018-02-24T01:13:09.306Z,-3.60
2018-02-24T01:15:36.808Z,-3.60
2018-02-24T01:18:05.552Z,-3.60
2018-02-24T01:20:33.057Z,-3.70
2018-02-24T01:23:01.338Z,-3.60
2018-02-24T01:25:29.606Z,-3.60
2018-02-24T01:27:57.638Z,-3.60
2018-02-24T01:30:25.734Z,-3.60
2018-02-24T01:32:53.639Z,-3.50
2018-02-24T01:35:21.901Z,-3.30
2018-02-24T01:37:49.388Z,-3.30
2018-02-24T01:40:17.667Z,-3.00
2018-02-24T01:42:45.927Z,-2.90
2018-02-24T01:45:13.440Z,-2.90
2018-02-24T01:47:40.930Z,-2.80
2018-02-24T01:50:08.442Z,-2.70
2018-02-24T01:52:36.756Z,-2.40
2018-02-24T01:55:04.253Z,-2.40
2018-02-24T01:57:31.752Z,-2.30
2018-02-24T02:00:00.013Z,-2.10
2018-02-24T02:02:28.200Z,-2.10
2018-02-24T02:04:56.453Z,-1.90
2018-02-24T02:07:23.959Z,-1.90
2018-02-24T02:09:51.454Z,-1.80
2018-02-24T02:12:18.952Z,-1.80
2018-02-24T02:14:46.468Z,-1.70
2018-02-24T02:17:13.947Z,-1.70
2018-02-24T02:19:41.453Z,-1.60
2018-02-24T02:22:08.944Z,-1.60
2018-02-24T02:24:36.451Z,-1.60
2018-02-24T02:27:03.960Z,-1.60
2018-02-24T02:29:31.483Z,-1.60
2018-02-24T02:31:58.988Z,-1.60
2018-02-24T02:34:27.252Z,-1.50
2018-02-24T02:36:55.528Z,-1.50
2018-02-24T02:39:23.036Z,-1.50
2018-02-24T02:41:50.544Z,-1.40
2018-02-24T02:44:18.069Z,-1.50
2018-02-24T02:46:45.560Z,-1.50
2018-02-24T02:49:13.185Z,-1.60
2018-02-24T02:51:40.744Z,-1.60
2018-02-24T02:54:08.250Z,-1.60
2018-02-24T02:56:36.244Z,-1.70
2018-02-24T02:59:04.587Z,-1.70
2018-02-24T03:01:32.093Z,-1.70
2018-02-24T03:03:59.609Z,-1.60
2018-02-24T03:06:27.136Z,-1.60
2018-02-24T03:08:55.410Z,-1.60
2018-02-24T03:11:23.678Z,-1.60
2018-02-24T03:13:51.934Z,-1.50
2018-02-24T03:16:19.442Z,-1.50
2018-02-24T03:18:47.689Z,-1.50
2018-02-24T03:21:15.953Z,-1.50
2018-02-24T03:23:43.452Z,-1.50
2018-02-24T03:26:11.722Z,-1.40
2018-02-24T03:28:39.281Z,-1.40
2018-02-24T03:31:06.792Z,-1.30
2018-02-24T03:33:34.306Z,-1.20
2018-02-24T03:36:01.805Z,-1.30
2018-02-24T03:38:29.297Z,-1.30
2018-02-24T03:40:56.849Z,-1.20
2018-02-24T03:43:24.343Z,-1.30
2018-02-24T03:45:51.849Z,-1.30
2018-02-24T03:48:20.437Z,-1.30
2018-02-24T03:50:48.707Z,-1.30
2018-02-24T03:53:16.977Z,-1.30
2018-02-24T03:55:44.485Z,-1.30
2018-02-24T03:58:11.980Z,-1.30
2018-02-24T04:00:39.477Z,-1.30
2018-02-24T04:03:07.730Z,-1.30
2018-02-24T04:05:36.029Z,-1.30
2018-02-24T04:08:04.294Z,-1.20
2018-02-24T04:10:31.790Z,-1.20
2018-02-24T04:13:00.053Z,-1.20
2018-02-24T04:15:27.597Z,-1.20
2018-02-24T04:17:55.077Z,-1.20
2018-02-24T04:20:23.356Z,-1.30
2018-02-24T04:22:50.840Z,-1.30
2018-02-24T04:25:19.131Z,-1.30
2018-02-24T04:27:46.614Z,-1.40
2018-02-24T04:30:14.107Z,-1.40
2018-02-24T04:32:41.614Z,-1.40
2018-02-24T04:35:09.879Z,-1.30
2018-02-24T04:37:38.169Z,-1.30
2018-02-24T04:40:06.440Z,-1.40
2018-02-24T04:42:33.944Z,-1.40
2018-02-24T04:45:01.443Z,-1.40
2018-02-24T04:47:28.939Z,-1.50
2018-02-24T04:49:57.206Z,-1.50
2018-02-24T04:52:24.712Z,-1.50
2018-02-24T04:54:53.086Z,-1.50
2018-02-24T04:57:20.598Z,-1.50
2018-02-24T04:59:48.086Z,-1.50
2018-02-24T05:02:16.354Z,-1.40
2018-02-24T05:04:44.364Z,-1.40
2018-02-24T05:07:11.857Z,-1.40
2018-02-24T05:09:39.365Z,-1.50
2018-02-24T05:12:06.865Z,-1.50
2018-02-24T05:14:34.366Z,-1.40
2018-02-24T05:17:01.865Z,-1.40
2018-02-24T05:19:30.127Z,-1.40
2018-02-24T05:21:57.633Z,-1.50
2018-02-24T05:24:25.130Z,-1.50
2018-02-24T05:26:53.240Z,-1.50
2018-02-24T05:29:22.321Z,-1.40
2018-02-24T05:31:49.831Z,-1.50
2018-02-24T05:34:17.338Z,-1.40
2018-02-24T05:36:44.868Z,-1.40
2018-02-24T05:39:12.362Z,-1.40
2018-02-24T05:41:39.853Z,-1.30
2018-02-24T05:44:08.126Z,-1.20
2018-02-24T05:46:35.606Z,-1.20
2018-02-24T05:49:03.887Z,-1.20
2018-02-24T05:51:32.137Z,-1.30
2018-02-24T05:53:59.655Z,-1.30
2018-02-24T05:56:27.198Z,-1.30
2018-02-24T05:58:55.471Z,-1.40
2018-02-24T06:01:23.746Z,-1.50
2018-02-24T06:03:52.005Z,-1.60
2018-02-24T06:06:19.537Z,-1.50
2018-02-24T06:08:47.037Z,-1.70
2018-02-24T06:11:14.582Z,-1.80
2018-02-24T06:13:42.077Z,-1.80
2018-02-24T06:16:10.381Z,-2.00
2018-02-24T06:18:38.791Z,-2.00
2018-02-24T06:21:06.301Z,-2.00
2018-02-24T06:23:33.909Z,-2.00
2018-02-24T06:26:01.406Z,-1.90
2018-02-24T06:28:28.898Z,-2.00
2018-02-24T06:30:57.220Z,-1.90
2018-02-24T06:33:24.714Z,-1.90
2018-02-24T06:35:52.221Z,-1.90
2018-02-24T06:38:20.477Z,-1.90
2018-02-24T06:40:47.990Z,-1.90
2018-02-24T06:43:15.522Z,-1.90
2018-02-24T06:45:43.026Z,-1.80
2018-02-24T06:48:10.527Z,-1.80
2018-02-24T06:50:38.027Z,-1.70
2018-02-24T06:53:05.549Z,-1.70
2018-02-24T06:55:33.103Z,-1.60
2018-02-24T06:58:00.602Z,-1.50
2018-02-24T07:00:28.891Z,-1.40
2018-02-24T07:02:56.467Z,-1.40
2018-02-24T07:05:23.961Z,-1.30
2018-02-24T07:07:51.476Z,-1.40
2018-02-24T07:10:19.790Z,-1.40
2018-02-24T07:12:47.316Z,-1.40
2018-02-24T07:15:15.579Z,-1.20
2018-02-24T07:17:43.081Z,-1.30
2018-02-24T07:20:10.606Z,-1.20
2018-02-24T07:22:38.098Z,-1.20
2018-02-24T07:25:06.379Z,-1.10
2018-02-24T07:27:34.632Z,-1.10
2018-02-24T07:30:02.151Z,-1.10
2018-02-24T07:32:29.648Z,-1.10
2018-02-24T07:34:57.229Z,-1.10
2018-02-24T07:37:25.512Z,-1.10
2018-02-24T07:39:53.759Z,-1.00
2018-02-24T07:42:21.245Z,-1.00
2018-02-24T07:44:48.750Z,-1.00
2018-02-24T07:47:16.250Z,-0.80
2018-02-24T07:49:43.733Z,-0.70
2018-02-24T07:52:11.237Z,-0.70
2018-02-24T07:54:38.726Z,-0.80
2018-02-24T07:57:06.220Z,-0.90
2018-02-24T07:59:33.713Z,-0.90
2018-02-24T08:02:01.958Z,-0.90
2018-02-24T08:04:29.555Z,-0.90
2018-02-24T08:06:57.821Z,-0.80
2018-02-24T08:09:26.092Z,-0.70
2018-02-24T08:11:53.582Z,-0.70
2018-02-24T08:14:21.478Z,-0.50
2018-02-24T08:16:48.989Z,-0.30
2018-02-24T08:19:16.525Z,-0.10
2018-02-24T08:21:44.022Z,0.00
2018-02-24T08:24:13.796Z,-0.10
2018-02-24T08:26:41.302Z,-0.20
2018-02-24T08:29:09.568Z,-0.40
2018-02-24T08:31:37.058Z,-0.40
2018-02-24T08:34:05.313Z,-0.50
2018-02-24T08:36:32.815Z,-0.50
2018-02-24T08:39:00.306Z,-0.40
2018-02-24T08:41:27.785Z,-0.40
2018-02-24T08:43:55.290Z,-0.50
2018-02-24T08:46:24.703Z,-0.50
2018-02-24T08:48:53.084Z,-0.40
2018-02-24T08:51:21.334Z,-0.30
2018-02-24T08:53:48.865Z,-0.30
2018-02-24T08:56:16.335Z,-0.30
2018-02-24T08:58:43.842Z,-0.20
2018-02-24T09:01:12.123Z,-0.40
2018-02-24T09:03:40.386Z,-0.40
2018-02-24T09:06:07.874Z,-0.40
2018-02-24T09:08:36.133Z,0.00
2018-02-24T09:11:03.637Z,-0.10
2018-02-24T09:13:31.140Z,-0.10
2018-02-24T09:15:58.829Z,-0.10
2018-02-24T09:18:27.135Z,-0.20
2018-02-24T09:20:54.647Z,-0.20
2018-02-24T09:23:22.137Z,0.10
2018-02-24T09:25:49.628Z,0.40
2018-02-24T09:28:17.265Z,0.40
2018-02-24T09:30:44.810Z,0.60
2018-02-24T09:33:12.317Z,0.70
2018-02-24T09:35:39.860Z,0.40
2018-02-24T09:38:07.350Z,0.20
2018-02-24T09:40:34.842Z,0.30
2018-02-24T09:43:02.349Z,0.40
2018-02-24T09:45:29.842Z,0.70
2018-02-24T09:47:57.322Z,0.90
2018-02-24T09:50:24.840Z,1.00
2018-02-24T09:52:53.118Z,0.90
2018-02-24T09:55:20.640Z,0.90
2018-02-24T09:57:48.135Z,1.00
2018-02-24T10:00:15.641Z,1.20
2018-02-24T10:02:43.887Z,1.50
2018-02-24T10:05:12.165Z,1.30
2018-02-24T10:07:39.676Z,1.30
2018-02-24T10:10:07.163Z,1.20
2018-02-24T10:12:34.893Z,1.10
2018-02-24T10:15:02.576Z,1.10
2018-02-24T10:17:30.152Z,0.90
2018-02-24T10:19:57.934Z,0.50
2018-02-24T10:22:25.466Z,0.50
2018-02-24T10:24:54.311Z,0.50
2018-02-24T10:27:21.804Z,0.30
2018-02-24T10:29:50.907Z,0.40
2018-02-24T10:32:19.259Z,0.30
2018-02-24T10:34:46.788Z,0.20
2018-02-24T10:37:15.294Z,0.10
2018-02-24T10:39:42.793Z,-0.20
2018-02-24T10:42:11.108Z,0.00
2018-02-24T10:44:38.603Z,0.00
2018-02-24T10:47:06.171Z,0.30
2018-02-24T10:49:33.700Z,0.50
2018-02-24T10:52:01.427Z,0.80
2018-02-24T10:54:28.946Z,1.00
2018-02-24T10:56:56.460Z,1.10
2018-02-24T10:59:24.795Z,0.60
2018-02-24T11:01:52.344Z,0.60
2018-02-24T11:04:19.877Z,0.40
2018-02-24T11:06:48.150Z,0.20
2018-02-24T11:09:16.528Z,0.20
2018-02-24T11:11:44.810Z,0.20
2018-02-24T11:14:13.125Z,0.10
2018-02-24T11:16:40.650Z,0.00
2018-02-24T11:19:08.950Z,0.00
2018-02-24T11:21:37.269Z,0.30
2018-02-24T11:24:04.788Z,0.20
2018-02-24T11:26:33.073Z,0.80
2018-02-24T11:29:01.368Z,0.90
2018-02-24T11:31:29.613Z,0.80
2018-02-24T11:33:57.096Z,0.80
2018-02-24T11:36:25.358Z,0.60
2018-02-24T11:38:52.829Z,0.60
2018-02-24T11:41:21.084Z,0.10
2018-02-24T11:43:48.575Z,0.10
2018-02-24T11:46:16.842Z,0.10
2018-02-24T11:48:45.197Z,0.20
2018-02-24T11:51:12.691Z,0.20
2018-02-24T11:53:40.977Z,0.50
2018-02-24T11:56:09.246Z,0.60
2018-02-24T11:58:37.620Z,0.60
2018-02-24T12:01:06.649Z,0.50
2018-02-24T12:03:34.899Z,0.60
2018-02-24T12:06:03.898Z,0.60
2018-02-24T12:08:31.413Z,0.60
2018-02-24T12:10:59.178Z,0.60
2018-02-24T12:13:26.695Z,0.70
2018-02-24T12:15:54.989Z,0.70
2018-02-24T12:18:22.470Z,0.60
2018-02-24T12:20:50.027Z,0.80
2018-02-24T12:23:18.360Z,0.50
2018-02-24T12:25:45.890Z,0.50
2018-02-24T12:28:13.396Z,0.60
2018-02-24T12:30:40.916Z,0.50
2018-02-24T12:33:08.396Z,0.60
2018-02-24T12:35:35.908Z,0.70
2018-02-24T12:38:04.171Z,0.60
2018-02-24T12:40:31.838Z,0.60
2018-02-24T12:42:59.322Z,0.50
2018-02-24T12:45:27.647Z,0.70
2018-02-24T12:47:55.179Z,0.60
2018-02-24T12:50:22.693Z,0.50
2018-02-24T12:52:50.186Z,0.30
2018-02-24T12:55:17.702Z,0.30
2018-02-24T12:57:45.200Z,0.20
2018-02-24T13:00:12.727Z,0.10
2018-02-24T13:02:40.218Z,0.10
2018-02-24T13:05:07.728Z,0.20
2018-02-24T13:07:35.981Z,0.30
2018-02-24T13:10:03.501Z,0.40
2018-02-24T13:12:31.005Z,0.50
2018-02-24T13:14:58.514Z,0.40
2018-02-24T13:17:26.070Z,0.40
2018-02-24T13:19:53.581Z,0.50
2018-02-24T13:22:21.096Z,0.70
2018-02-24T13:24:48.818Z,0.90
2018-02-24T13:27:16.343Z,0.80
2018-02-24T13:29:43.984Z,0.60
2018-02-24T13:32:12.234Z,0.60
2018-02-24T13:34:39.831Z,0.50
2018-02-24T13:37:08.096Z,0.40
2018-02-24T13:39:36.389Z,0.20
2018-02-24T13:42:04.731Z,0.00
2018-02-24T13:44:32.355Z,0.00
2018-02-24T13:47:00.352Z,-0.30
2018-02-24T13:49:27.878Z,-0.40
2018-02-24T13:51:55.512Z,-0.60
2018-02-24T13:54:23.022Z,-0.60
2018-02-24T13:56:50.530Z,-0.40
2018-02-24T13:59:18.068Z,-0.20
2018-02-24T14:01:45.588Z,-0.10
2018-02-24T14:04:13.848Z,-0.10
2018-02-24T14:06:41.381Z,-0.10
2018-02-24T14:09:08.862Z,-0.10
2018-02-24T14:11:36.549Z,-0.10
2018-02-24T14:14:04.138Z,-0.20
2018-02-24T14:16:32.404Z,-0.20
2018-02-24T14:19:00.681Z,-0.20
2018-02-24T14:21:28.962Z,-0.10
2018-02-24T14:23:56.503Z,-0.10
2018-02-24T14:26:23.998Z,0.30
2018-02-24T14:28:52.258Z,0.40
2018-02-24T14:31:19.770Z,0.40
2018-02-24T14:33:47.274Z,0.20
2018-02-24T14:36:14.773Z,0.00
2018-02-24T14:38:43.650Z,-0.40
2018-02-24T14:41:11.159Z,-0.40
2018-02-24T14:43:38.727Z,-0.40
2018-02-24T14:46:06.348Z,-0.40
2018-02-24T14:48:34.628Z,-0.30
2018-02-24T14:51:02.901Z,-0.20
2018-02-24T14:53:31.779Z,-0.10
2018-02-24T14:55:59.591Z,-0.10
2018-02-24T14:58:27.848Z,-0.20
2018-02-24T15:00:56.109Z,-0.30
2018-02-24T15:03:23.656Z,-0.30
2018-02-24T15:05:51.172Z,-0.50
2018-02-24T15:08:19.468Z,-0.70
2018-02-24T15:10:47.151Z,-0.70
2018-02-24T15:13:14.750Z,-0.80
2018-02-24T15:15:43.019Z,-0.90
2018-02-24T15:18:10.550Z,-0.80
2018-02-24T15:20:38.171Z,-0.80
2018-02-24T15:23:05.731Z,-0.80
2018-02-24T15:25:33.218Z,-0.90
2018-02-24T15:28:01.588Z,-1.00
2018-02-24T15:30:29.886Z,-1.00
2018-02-24T15:32:57.409Z,-1.00
2018-02-24T15:35:24.947Z,-1.00
2018-02-24T15:37:52.454Z,-1.00
2018-02-24T15:40:20.386Z,-1.00
2018-02-24T15:42:47.870Z,-1.00
2018-02-24T15:45:15.422Z,-1.00
2018-02-24T15:47:42.947Z,-1.00
2018-02-24T15:50:11.234Z,-1.10
2018-02-24T15:52:38.811Z,-1.10
2018-02-24T15:55:06.347Z,-1.10
2018-02-24T15:57:34.625Z,-1.20
2018-02-24T16:00:02.959Z,-1.20
2018-02-24T16:02:30.519Z,-1.20
2018-02-24T16:04:58.035Z,-1.30
2018-02-24T16:07:26.295Z,-1.30
2018-02-24T16:09:53.815Z,-1.30
2018-02-24T16:12:21.494Z,-1.30
2018-02-24T16:14:49.018Z,-1.40
2018-02-24T16:17:17.314Z,-1.40
2018-02-24T16:19:45.079Z,-1.40
2018-02-24T16:22:12.679Z,-1.40
2018-02-24T16:24:41.017Z,-1.30
2018-02-24T16:27:09.288Z,-1.30
2018-02-24T16:29:37.755Z,-1.30
2018-02-24T16:32:06.042Z,-1.30
2018-02-24T16:34:33.829Z,-1.30
2018-02-24T16:37:02.222Z,-1.50
2018-02-24T16:39:29.755Z,-1.50
2018-02-24T16:41:58.025Z,-1.60
2018-02-24T16:44:25.656Z,-1.60
2018-02-24T16:46:53.183Z,-1.70
2018-02-24T16:49:20.710Z,-1.70
2018-02-24T16:51:48.211Z,-1.70
2018-02-24T16:54:16.541Z,-1.80
2018-02-24T16:56:44.078Z,-1.80
2018-02-24T16:59:12.051Z,-1.80
2018-02-24T17:01:39.548Z,-1.90
2018-02-24T17:04:07.053Z,-1.90
2018-02-24T17:06:35.332Z,-2.00
2018-02-24T17:09:03.680Z,-2.00
2018-02-24T17:11:31.227Z,-2.00
2018-02-24T17:13:58.732Z,-2.00
2018-02-24T17:16:26.372Z,-2.00
2018-02-24T17:18:53.877Z,-2.00
2018-02-24T17:21:22.255Z,-2.10
2018-02-24T17:23:50.509Z,-2.10
2018-02-24T17:26:17.999Z,-2.10
2018-02-24T17:28:46.443Z,-2.10
2018-02-24T17:31:13.955Z,-2.10
2018-02-24T17:33:42.206Z,-2.20
2018-02-24T17:36:09.703Z,-2.20
2018-02-24T17:38:37.193Z,-2.20
2018-02-24T17:41:04.694Z,-2.20
2018-02-24T17:43:32.201Z,-2.30
2018-02-24T17:45:59.732Z,-2.30
2018-02-24T17:48:27.299Z,-2.30
2018-02-24T17:50:54.788Z,-2.30
2018-02-24T17:53:22.318Z,-2.30
2018-02-24T17:55:50.004Z,-2.40
2018-02-24T17:58:17.782Z,-2.40
2018-02-24T18:00:46.875Z,-2.40
2018-02-24T18:03:15.175Z,-2.40
2018-02-24T18:05:44.545Z,-2.50
2018-02-24T18:08:12.842Z,-2.40
2018-02-24T18:10:41.098Z,-2.50
2018-02-24T18:13:08.643Z,-2.50
2018-02-24T18:15:36.266Z,-2.50
2018-02-24T18:18:03.825Z,-2.50
2018-02-24T18:20:31.395Z,-2.60
2018-02-24T18:22:58.938Z,-2.60
2018-02-24T18:25:26.438Z,-2.60
2018-02-24T18:27:53.946Z,-2.60
2018-02-24T18:30:22.249Z,-2.60
2018-02-24T18:32:49.793Z,-2.60
2018-02-24T18:35:18.084Z,-2.60
2018-02-24T18:37:46.372Z,-2.60
2018-02-24T18:40:15.355Z,-2.60
2018-02-24T18:42:42.857Z,-2.60
2018-02-24T18:45:10.369Z,-2.70
2018-02-24T18:47:37.878Z,-2.70
2018-02-24T18:50:05.386Z,-2.80
2018-02-24T18:52:32.908Z,-2.80
2018-02-24T18:55:00.561Z,-2.80
2018-02-24T18:57:28.091Z,-2.80
2018-02-24T18:59:56.375Z,-2.90
2018-02-24T19:02:23.899Z,-2.90
2018-02-24T19:04:51.535Z,-2.90
2018-02-24T19:07:19.794Z,-2.90
2018-02-24T19:09:48.087Z,-2.90
2018-02-24T19:12:16.350Z,-3.00
2018-02-24T19:14:43.877Z,-2.90
2018-02-24T19:17:11.393Z,-2.90
2018-02-24T19:19:38.973Z,-3.00
2018-02-24T19:22:06.470Z,-3.00
2018-02-24T19:24:34.026Z,-3.10
2018-02-24T19:27:02.365Z,-3.10
2018-02-24T19:29:30.626Z,-3.10
2018-02-24T19:31:58.227Z,-3.10
2018-02-24T19:34:28.647Z,-3.10
2018-02-24T19:36:56.192Z,-3.10
2018-02-24T19:39:23.744Z,-3.10
2018-02-24T19:41:52.130Z,-3.10
2018-02-24T19:44:19.685Z,-3.20
2018-02-24T19:46:47.196Z,-3.20
2018-02-24T19:49:14.724Z,-3.30
2018-02-24T19:51:43.738Z,-3.30
2018-02-24T19:54:12.030Z,-3.30
2018-02-24T19:56:40.287Z,-3.30
2018-02-24T19:59:08.578Z,-3.30
2018-02-24T20:01:36.856Z,-3.40
2018-02-24T20:04:05.134Z,-3.30
2018-02-24T20:06:33.402Z,-3.40
2018-02-24T20:09:00.930Z,-3.40
2018-02-24T20:11:28.424Z,-3.40
2018-02-24T20:13:55.943Z,-3.50
2018-02-24T20:16:23.519Z,-3.50
2018-02-24T20:18:51.058Z,-3.50
2018-02-24T20:21:19.353Z,-3.60
2018-02-24T20:23:46.865Z,-3.60
2018-02-24T20:26:14.389Z,-3.60
2018-02-24T20:28:41.926Z,-3.60
2018-02-24T20:31:10.195Z,-3.70
2018-02-24T20:33:38.514Z,-3.60
2018-02-24T20:36:06.021Z,-3.70
2018-02-24T20:38:34.277Z,-3.70
2018-02-24T20:41:02.601Z,-3.70
2018-02-24T20:43:30.885Z,-3.80
2018-02-24T20:45:59.267Z,-3.80
2018-02-24T20:48:27.814Z,-3.80
2018-02-24T20:50:55.442Z,-3.80
2018-02-24T20:53:22.939Z,-3.80
2018-02-24T20:55:50.469Z,-3.90
2018-02-24T20:58:17.973Z,-3.90
2018-02-24T21:00:45.495Z,-3.90
2018-02-24T21:03:12.989Z,-3.90
2018-02-24T21:05:40.539Z,-3.90
2018-02-24T21:08:08.087Z,-4.00
2018-02-24T21:10:37.326Z,-4.00
2018-02-24T21:13:04.888Z,-4.10
2018-02-24T21:15:32.606Z,-4.10
2018-02-24T21:18:00.887Z,-4.10
2018-02-24T21:20:29.204Z,-4.20
2018-02-24T21:22:56.701Z,-4.20
2018-02-24T21:25:24.219Z,-4.20
2018-02-24T21:27:52.253Z,-4.20
2018-02-24T21:30:19.808Z,-4.20
2018-02-24T21:32:48.810Z,-4.30
2018-02-24T21:35:16.314Z,-4.30
2018-02-24T21:37:43.949Z,-4.30
2018-02-24T21:40:12.252Z,-4.30
2018-02-24T21:42:39.777Z,-4.40
2018-02-24T21:45:07.305Z,-4.40
2018-02-24T21:47:34.822Z,-4.40
2018-02-24T21:50:03.118Z,-4.40
2018-02-24T21:52:30.619Z,-4.50
2018-02-24T21:54:58.162Z,-4.40
2018-02-24T21:57:25.653Z,-4.40
2018-02-24T21:59:53.143Z,-4.50
2018-02-24T22:02:20.630Z,-4.50
2018-02-24T22:04:48.933Z,-4.50
2018-02-24T22:07:16.425Z,-4.60
2018-02-24T22:09:43.913Z,-4.60
2018-02-24T22:12:11.465Z,-4.60
2018-02-24T22:14:39.096Z,-4.60
2018-02-24T22:17:06.615Z,-4.60
2018-02-24T22:19:34.118Z,-4.70
2018-02-24T22:22:01.646Z,-4.70
2018-02-24T22:24:29.140Z,-4.70
2018-02-24T22:26:56.714Z,-4.70
2018-02-24T22:29:24.213Z,-4.70
2018-02-24T22:31:51.716Z,-4.70
2018-02-24T22:34:19.987Z,-4.80
2018-02-24T22:36:48.279Z,-4.80
2018-02-24T22:39:16.561Z,-4.80
2018-02-24T22:41:44.093Z,-4.80
2018-02-24T22:44:11.602Z,-4.80
2018-02-24T22:46:39.122Z,-4.80
2018-02-24T22:49:07.406Z,-4.90
2018-02-24T22:51:34.913Z,-4.90
2018-02-24T22:54:03.300Z,-4.90
2018-02-24T22:56:30.813Z,-4.90
2018-02-24T22:58:58.312Z,-4.90
2018-02-24T23:01:25.836Z,-5.00
2018-02-24T23:03:53.324Z,-5.00
2018-02-24T23:06:21.642Z,-5.00
2018-02-24T23:08:49.170Z,-5.00
2018-02-24T23:11:16.921Z,-5.10
2018-02-24T23:13:45.208Z,-5.10
2018-02-24T23:16:13.484Z,-5.10
2018-02-24T23:18:40.979Z,-5.20
2018-02-24T23:21:08.482Z,-5.20
2018-02-24T23:23:36.829Z,-5.20
2018-02-24T23:26:04.332Z,-5.20
2018-02-24T23:28:31.877Z,-5.20
2018-02-24T23:30:59.396Z,-5.30
2018-02-24T23:33:28.835Z,-5.20
2018-02-24T23:35:56.350Z,-5.30
2018-02-24T23:38:24.634Z,-5.20
2018-02-24T23:40:52.201Z,-5.20
2018-02-24T23:43:20.495Z,-5.20
2018-02-24T23:45:48.769Z,-5.30
2018-02-24T23:48:17.387Z,-5.30
2018-02-24T23:50:45.668Z,-5.30
2018-02-24T23:53:13.291Z,-5.30
2018-02-24T23:55:42.115Z,-5.30
2018-02-24T23:58:09.629Z,-5.40
